createdAt,value
2018-03-03T00:01:00.076Z,57.90
2018-03-03T00:03:28.271Z,58.00
2018-03-03T00:05:57.272Z,58.30
2018-03-03T00:08:26.849Z,58.90
2018-03-03T00:10:55.305Z,58.90
2018-03-03T00:13:23.598Z,59.00
2018-03-03T00:15:51.824Z,58.90
2018-03-03T00:18:21.912Z,59.10
2018-03-03T00:20:50.426Z,59.10
2018-03-03T00:23:19.520Z,59.20
2018-03-03T00:25:48.210Z,59.20
2018-03-03T00:28:16.447Z,59.40
2018-03-03T00:30:45.458Z,59.20
2018-03-03T00:33:13.683Z,59.20
2018-03-03T00:35:41.998Z,58.50
2018-03-03T00:38:10.272Z,58.60
2018-03-03T00:40:38.519Z,58.80
2018-03-03T00:43:06.755Z,58.70
2018-03-03T00:45:34.960Z,59.10
2018-03-03T00:48:03.240Z,59.40
2018-03-03T00:50:31.463Z,58.90
2018-03-03T00:53:00.533Z,58.40
2018-03-03T00:55:28.748Z,58.40
2018-03-03T00:57:57.750Z,58.00
2018-03-03T01:00:26.134Z,57.90
2018-03-03T01:02:54.367Z,58.10
2018-03-03T01:05:22.732Z,57.80
2018-03-03T01:07:50.959Z,58.30
2018-03-03T01:10:19.989Z,58.80
2018-03-03T01:12:48.261Z,58.60
2018-03-03T01:15:16.526Z,58.10
2018-03-03T01:17:44.724Z,58.70
2018-03-03T01:20:13.040Z,58.50
2018-03-03T01:22:42.076Z,59.20
2018-03-03T01:25:10.380Z,59.20
2018-03-03T01:27:38.706Z,60.60
2018-03-03T01:30:06.904Z,62.40
2018-03-03T01:32:35.178Z,63.70
2018-03-03T01:35:03.420Z,66.10
2018-03-03T01:37:32.432Z,66.60
2018-03-03T01:40:00.637Z,66.60
2018-03-03T01:42:28.913Z,66.40
2018-03-03T01:44:57.233Z,67.40
2018-03-03T01:47:26.256Z,67.70
2018-03-03T01:49:54.497Z,67.70
2018-03-03T01:52:23.536Z,68.10
2018-03-03T01:54:52.036Z,68.20
2018-03-03T01:57:20.271Z,67.40
2018-03-03T01:59:48.472Z,67.10
2018-03-03T02:02:16.768Z,66.50
2018-03-03T02:04:46.212Z,66.60
2018-03-03T02:07:15.228Z,66.60
2018-03-03T02:09:43.884Z,66.60
2018-03-03T02:12:12.084Z,66.50
2018-03-03T02:14:40.477Z,66.50
2018-03-03T02:17:08.707Z,66.00
2018-03-03T02:19:36.945Z,67.10
2018-03-03T02:22:05.161Z,66.50
2018-03-03T02:24:34.347Z,67.80
2018-03-03T02:27:02.768Z,67.80
2018-03-03T02:29:31.014Z,68.40
2018-03-03T02:32:00.021Z,67.30
2018-03-03T02:34:29.021Z,68.20
2018-03-03T02:36:57.222Z,68.20
2018-03-03T02:39:25.462Z,68.80
2018-03-03T02:41:54.480Z,67.60
2018-03-03T02:44:22.784Z,67.60
2018-03-03T02:46:51.020Z,68.30
2018-03-03T02:49:19.272Z,67.20
2018-03-03T02:51:47.478Z,67.30
2018-03-03T02:54:15.710Z,66.60
2018-03-03T02:56:44.028Z,67.50
2018-03-03T02:59:12.222Z,67.30
2018-03-03T03:01:40.559Z,67.90
2018-03-03T03:04:08.858Z,68.00
2018-03-03T03:06:37.129Z,69.80
2018-03-03T03:09:06.100Z,70.30
2018-03-03T03:11:35.252Z,71.40
2018-03-03T03:14:03.484Z,71.40
2018-03-03T03:16:32.460Z,73.40
2018-03-03T03:19:00.777Z,73.50
2018-03-03T03:21:29.041Z,74.60
2018-03-03T03:23:57.253Z,74.60
2018-03-03T03:26:26.909Z,74.70
2018-03-03T03:28:55.889Z,74.50
2018-03-03T03:31:24.125Z,74.50
2018-03-03T03:33:53.752Z,76.20
2018-03-03T03:36:21.960Z,77.00
2018-03-03T03:38:51.003Z,76.50
2018-03-03T03:41:19.357Z,76.50
2018-03-03T03:43:47.588Z,78.00
2018-03-03T03:46:15.892Z,78.00
2018-03-03T03:48:44.892Z,79.20
2018-03-03T03:51:13.853Z,80.30
2018-03-03T03:53:42.169Z,80.30
2018-03-03T03:56:10.586Z,80.70
2018-03-03T03:58:38.791Z,81.90
2018-03-03T04:01:07.005Z,81.80
2018-03-03T04:03:35.224Z,81.80
2018-03-03T04:06:03.432Z,81.30
2018-03-03T04:08:32.401Z,82.10
2018-03-03T04:11:00.632Z,82.10
2018-03-03T04:13:28.856Z,83.40
2018-03-03T04:15:57.120Z,82.40
2018-03-03T04:18:25.390Z,81.40
2018-03-03T04:20:53.813Z,80.90
2018-03-03T04:23:22.018Z,81.60
2018-03-03T04:25:50.345Z,81.60
2018-03-03T04:28:21.232Z,81.30
2018-03-03T04:30:49.480Z,81.10
2018-03-03T04:33:17.777Z,81.20
2018-03-03T04:35:45.981Z,82.00
2018-03-03T04:38:14.204Z,82.00
2018-03-03T04:40:43.311Z,81.80
2018-03-03T04:43:12.299Z,81.80
2018-03-03T04:45:41.260Z,80.90
2018-03-03T04:48:09.542Z,80.90
2018-03-03T04:50:37.784Z,79.70
2018-03-03T04:53:06.065Z,79.80
2018-03-03T04:55:34.286Z,80.20
2018-03-03T04:58:03.276Z,79.90
2018-03-03T05:00:49.124Z,81.10
2018-03-03T05:03:34.049Z,81.20
2018-03-03T05:06:10.898Z,79.90
2018-03-03T05:08:39.979Z,80.70
2018-03-03T05:11:08.164Z,80.70
2018-03-03T05:13:47.223Z,81.10
2018-03-03T05:16:22.086Z,82.30
2018-03-03T05:18:55.921Z,82.30
2018-03-03T05:21:30.032Z,82.80
2018-03-03T05:24:03.888Z,83.30
2018-03-03T05:26:37.748Z,84.00
2018-03-03T05:29:12.539Z,84.00
2018-03-03T05:31:47.240Z,85.20
2018-03-03T05:34:21.226Z,84.00
2018-03-03T05:36:55.092Z,85.40
2018-03-03T05:39:40.212Z,85.00
2018-03-03T05:42:14.961Z,84.00
2018-03-03T05:44:48.844Z,83.90
2018-03-03T05:47:36.522Z,83.30
2018-03-03T05:50:21.519Z,83.30
2018-03-03T05:53:10.401Z,83.00
2018-03-03T05:55:57.477Z,83.80
2018-03-03T05:58:42.502Z,83.70
2018-03-03T06:01:26.437Z,83.20
2018-03-03T06:04:11.312Z,82.80
2018-03-03T06:06:55.368Z,82.60
2018-03-03T06:09:28.844Z,82.20
2018-03-03T06:11:57.305Z,82.20
2018-03-03T06:14:26.180Z,82.80
2018-03-03T06:16:54.663Z,81.40
2018-03-03T06:19:22.837Z,81.30
2018-03-03T06:21:51.165Z,80.70
2018-03-03T06:24:19.468Z,80.30
2018-03-03T06:26:47.839Z,79.90
2018-03-03T06:29:16.060Z,79.50
2018-03-03T06:31:44.340Z,79.40
2018-03-03T06:34:12.620Z,78.90
2018-03-03T06:36:40.835Z,78.60
2018-03-03T06:39:09.110Z,79.20
2018-03-03T06:41:37.332Z,78.30
2018-03-03T06:44:05.528Z,78.30
2018-03-03T06:46:33.804Z,79.00
2018-03-03T06:49:02.056Z,78.60
2018-03-03T06:51:30.283Z,77.30
2018-03-03T06:53:59.236Z,77.90
2018-03-03T06:56:27.528Z,77.90
2018-03-03T06:58:55.802Z,77.40
2018-03-03T07:01:24.028Z,78.00
2018-03-03T07:03:52.380Z,77.70
2018-03-03T07:06:21.385Z,77.80
2018-03-03T07:08:49.556Z,77.00
2018-03-03T07:11:17.898Z,76.60
2018-03-03T07:13:46.139Z,76.50
2018-03-03T07:16:14.340Z,76.70
2018-03-03T07:18:42.741Z,76.00
2018-03-03T07:21:11.768Z,75.50
2018-03-03T07:23:40.236Z,75.50
2018-03-03T07:26:08.501Z,74.80
2018-03-03T07:28:37.612Z,74.30
2018-03-03T07:31:05.867Z,74.30
2018-03-03T07:33:34.204Z,73.90
2018-03-03T07:36:02.431Z,74.10
2018-03-03T07:38:30.648Z,73.60
2018-03-03T07:40:59.002Z,74.10
2018-03-03T07:43:27.768Z,74.10
2018-03-03T07:45:57.076Z,72.80
2018-03-03T07:48:25.396Z,72.70
2018-03-03T07:50:53.620Z,72.30
2018-03-03T07:53:22.050Z,72.60
2018-03-03T07:55:50.455Z,72.80
2018-03-03T07:58:30.376Z,72.50
2018-03-03T08:00:58.624Z,71.50
2018-03-03T08:03:26.824Z,69.80
2018-03-03T08:05:55.160Z,71.00
2018-03-03T08:08:24.171Z,71.70
2018-03-03T08:10:52.383Z,71.70
2018-03-03T08:13:20.596Z,71.30
2018-03-03T08:15:49.653Z,71.70
2018-03-03T08:18:18.435Z,71.70
2018-03-03T08:20:46.748Z,71.50
2018-03-03T08:23:15.807Z,68.80
2018-03-03T08:25:44.045Z,68.70
2018-03-03T08:28:12.326Z,70.60
2018-03-03T08:30:40.564Z,69.90
2018-03-03T08:33:08.805Z,68.80
2018-03-03T08:35:37.064Z,67.50
2018-03-03T08:38:05.336Z,66.90
2018-03-03T08:40:33.548Z,67.10
2018-03-03T08:43:01.745Z,67.40
2018-03-03T08:45:30.794Z,69.10
2018-03-03T08:47:58.992Z,69.10
2018-03-03T08:50:27.200Z,68.80
2018-03-03T08:52:56.460Z,69.20
2018-03-03T08:55:24.704Z,69.20
2018-03-03T08:57:52.916Z,70.30
2018-03-03T09:00:21.188Z,69.50
2018-03-03T09:02:49.392Z,69.00
2018-03-03T09:05:18.622Z,68.20
2018-03-03T09:07:47.053Z,68.10
2018-03-03T09:10:16.080Z,69.10
2018-03-03T09:12:44.308Z,69.00
2018-03-03T09:15:12.576Z,68.20
2018-03-03T09:17:40.776Z,68.60
2018-03-03T09:20:08.976Z,68.70
2018-03-03T09:22:37.232Z,68.80
2018-03-03T09:25:05.440Z,68.60
2018-03-03T09:27:33.661Z,68.90
2018-03-03T09:30:01.958Z,69.00
2018-03-03T09:32:30.164Z,70.70
2018-03-03T09:34:59.229Z,69.50
2018-03-03T09:37:27.553Z,68.50
2018-03-03T09:39:55.887Z,68.60
2018-03-03T09:42:24.093Z,68.30
2018-03-03T09:44:52.424Z,68.20
2018-03-03T09:47:20.667Z,69.90
2018-03-03T09:49:48.921Z,68.30
2018-03-03T09:52:18.174Z,68.80
2018-03-03T09:54:46.562Z,68.10
2018-03-03T09:57:14.773Z,68.00
2018-03-03T09:59:43.149Z,67.50
2018-03-03T10:02:12.100Z,67.70
2018-03-03T10:04:40.300Z,67.70
2018-03-03T10:07:08.575Z,68.10
2018-03-03T10:09:36.769Z,67.30
2018-03-03T10:12:05.742Z,67.50
2018-03-03T10:14:33.988Z,67.50
2018-03-03T10:17:02.281Z,67.90
2018-03-03T10:19:30.485Z,66.50
2018-03-03T10:21:59.524Z,66.60
2018-03-03T10:24:28.497Z,66.60
2018-03-03T10:26:56.695Z,66.50
2018-03-03T10:29:24.977Z,66.50
2018-03-03T10:31:53.171Z,66.90
2018-03-03T10:34:22.251Z,67.30
2018-03-03T10:36:50.525Z,67.40
2018-03-03T10:39:18.727Z,67.70
2018-03-03T10:41:46.977Z,68.50
2018-03-03T10:44:15.244Z,67.50
2018-03-03T10:46:43.657Z,67.40
2018-03-03T10:49:11.856Z,66.30
2018-03-03T10:51:40.917Z,65.90
2018-03-03T10:54:09.090Z,65.70
2018-03-03T10:56:37.285Z,65.30
2018-03-03T10:59:06.394Z,67.40
2018-03-03T11:01:35.435Z,66.30
2018-03-03T11:04:03.700Z,66.30
2018-03-03T11:06:32.653Z,66.00
2018-03-03T11:09:01.609Z,64.70
2018-03-03T11:11:29.815Z,64.70
2018-03-03T11:13:58.093Z,65.60
2018-03-03T11:16:27.098Z,64.20
2018-03-03T11:18:56.056Z,64.20
2018-03-03T11:21:24.291Z,64.20
2018-03-03T11:23:52.513Z,64.00
2018-03-03T11:26:20.726Z,64.60
2018-03-03T11:28:49.035Z,62.40
2018-03-03T11:31:18.448Z,61.80
2018-03-03T11:33:46.673Z,60.60
2018-03-03T11:36:15.704Z,62.60
2018-03-03T11:38:43.908Z,62.50
2018-03-03T11:41:12.117Z,62.20
2018-03-03T11:43:41.107Z,62.30
2018-03-03T11:46:10.097Z,62.10
2018-03-03T11:48:39.075Z,61.50
2018-03-03T11:51:07.299Z,61.50
2018-03-03T11:53:35.494Z,62.60
2018-03-03T11:56:03.698Z,61.80
2018-03-03T11:58:31.975Z,63.00
2018-03-03T12:01:00.170Z,62.00
2018-03-03T12:03:29.142Z,60.90
2018-03-03T12:05:57.353Z,60.70
2018-03-03T12:08:25.558Z,62.90
2018-03-03T12:10:53.763Z,60.30
2018-03-03T12:13:21.984Z,60.50
2018-03-03T12:15:50.388Z,59.40
2018-03-03T12:18:18.616Z,62.20
2018-03-03T12:20:47.631Z,58.90
2018-03-03T12:23:15.829Z,58.90
2018-03-03T12:25:44.020Z,59.30
2018-03-03T12:28:12.280Z,60.70
2018-03-03T12:30:40.468Z,61.40
2018-03-03T12:33:08.856Z,60.00
2018-03-03T12:35:37.134Z,62.50
2018-03-03T12:38:05.299Z,60.80
2018-03-03T12:40:33.492Z,60.30
2018-03-03T12:43:03.743Z,62.00
2018-03-03T12:45:32.052Z,62.00
2018-03-03T12:48:00.312Z,60.90
2018-03-03T12:50:28.581Z,62.30
2018-03-03T12:52:56.832Z,62.80
2018-03-03T12:55:25.838Z,59.90
2018-03-03T12:57:54.137Z,59.90
2018-03-03T13:00:22.360Z,58.70
2018-03-03T13:02:50.600Z,59.10
2018-03-03T13:05:18.903Z,59.40
2018-03-03T13:07:47.115Z,59.80
2018-03-03T13:12:43.207Z,59.60
2018-03-03T13:15:11.397Z,59.60
2018-03-03T13:17:39.604Z,60.00
2018-03-03T13:20:09.274Z,58.20
2018-03-03T13:22:37.496Z,58.20
2018-03-03T13:25:06.488Z,58.10
2018-03-03T13:27:34.812Z,58.10
2018-03-03T13:30:02.980Z,57.60
2018-03-03T13:32:31.178Z,58.40
2018-03-03T13:34:59.456Z,59.30
2018-03-03T13:37:27.663Z,58.70
2018-03-03T13:39:56.694Z,57.30
2018-03-03T13:42:24.923Z,57.30
2018-03-03T13:44:53.925Z,57.90
2018-03-03T13:47:22.121Z,57.90
2018-03-03T13:49:50.365Z,58.00
2018-03-03T13:52:19.358Z,58.00
2018-03-03T13:54:48.313Z,57.80
2018-03-03T13:57:16.536Z,57.70
2018-03-03T13:59:45.128Z,58.50
2018-03-03T14:02:13.384Z,59.20
2018-03-03T14:04:42.380Z,59.50
2018-03-03T14:07:11.352Z,59.70
2018-03-03T14:09:39.552Z,59.70
2018-03-03T14:12:08.591Z,60.00
2018-03-03T14:14:36.896Z,60.00
2018-03-03T14:17:05.408Z,60.60
2018-03-03T14:19:34.432Z,59.80
2018-03-03T14:22:02.696Z,59.80
2018-03-03T14:24:30.948Z,60.60
2018-03-03T14:26:59.932Z,60.20
2018-03-03T14:29:29.417Z,61.10
2018-03-03T14:31:57.756Z,60.40
2018-03-03T14:34:26.317Z,60.70
2018-03-03T14:36:54.494Z,60.60
2018-03-03T14:39:22.691Z,60.80
2018-03-03T14:41:50.934Z,61.20
2018-03-03T14:44:19.952Z,60.00
2018-03-03T14:46:48.194Z,60.00
2018-03-03T14:49:17.176Z,60.10
2018-03-03T14:51:45.435Z,60.00
2018-03-03T14:54:13.657Z,59.80
2018-03-03T14:56:41.909Z,60.20
2018-03-03T14:59:10.911Z,59.90
2018-03-03T15:01:39.916Z,60.10
2018-03-03T15:04:08.138Z,60.10
2018-03-03T15:06:36.355Z,60.00
2018-03-03T15:09:05.348Z,60.00
2018-03-03T15:11:33.699Z,60.60
2018-03-03T15:14:01.898Z,60.40
2018-03-03T15:16:30.857Z,60.10
2018-03-03T15:18:59.167Z,60.10
2018-03-03T15:21:28.166Z,60.90
2018-03-03T15:23:57.148Z,60.70
2018-03-03T15:26:26.137Z,60.70
2018-03-03T15:28:55.173Z,60.40
2018-03-03T15:31:23.376Z,60.40
2018-03-03T15:33:51.602Z,60.10
2018-03-03T15:36:19.863Z,60.40
2018-03-03T15:38:48.100Z,60.60
2018-03-03T15:41:17.627Z,60.80
2018-03-03T15:43:45.827Z,61.20
2018-03-03T15:46:14.793Z,62.40
2018-03-03T15:48:43.028Z,62.30
2018-03-03T15:51:11.240Z,61.20
2018-03-03T15:53:39.452Z,61.00
2018-03-03T15:56:08.727Z,61.70
2018-03-03T15:58:36.971Z,61.70
2018-03-03T16:01:05.208Z,61.90
2018-03-03T16:03:34.241Z,61.80
2018-03-03T16:06:02.485Z,61.90
2018-03-03T16:08:31.449Z,62.20
2018-03-03T16:10:59.699Z,62.20
2018-03-03T16:13:27.930Z,62.20
2018-03-03T16:15:56.945Z,62.60
2018-03-03T16:18:25.173Z,62.50
2018-03-03T16:20:53.434Z,63.00
2018-03-03T16:23:21.637Z,64.10
2018-03-03T16:25:50.820Z,63.40
2018-03-03T16:28:19.028Z,63.40
2018-03-03T16:30:47.479Z,63.60
2018-03-03T16:33:15.734Z,63.80
2018-03-03T16:35:43.933Z,64.40
2018-03-03T16:38:12.937Z,64.00
2018-03-03T16:40:41.991Z,64.50
2018-03-03T16:43:10.200Z,64.40
2018-03-03T16:45:39.165Z,64.10
2018-03-03T16:48:08.053Z,64.10
2018-03-03T16:50:36.249Z,64.90
2018-03-03T16:53:04.452Z,63.90
2018-03-03T16:55:32.700Z,63.80
2018-03-03T16:58:00.894Z,63.70
2018-03-03T17:00:29.879Z,63.90
2018-03-03T17:02:58.860Z,65.00
2018-03-03T17:05:27.052Z,65.00
2018-03-03T17:07:56.387Z,64.90
2018-03-03T17:10:24.705Z,64.90
2018-03-03T17:12:52.953Z,64.90
2018-03-03T17:15:21.196Z,64.70
2018-03-03T17:17:49.443Z,64.30
2018-03-03T17:20:18.491Z,64.70
2018-03-03T17:22:47.440Z,65.50
2018-03-03T17:25:16.423Z,65.10
2018-03-03T17:27:45.392Z,64.40
2018-03-03T17:30:13.626Z,64.20
2018-03-03T17:32:42.171Z,65.20
2018-03-03T17:35:10.373Z,65.00
2018-03-03T17:37:38.625Z,65.10
2018-03-03T17:40:07.017Z,64.70
2018-03-03T17:42:36.002Z,64.00
2018-03-03T17:45:05.037Z,65.00
2018-03-03T17:47:33.201Z,65.00
2018-03-03T17:50:01.393Z,64.10
2018-03-03T17:52:29.608Z,64.60
2018-03-03T17:54:59.185Z,65.60
2018-03-03T17:57:27.412Z,65.30
2018-03-03T17:59:55.730Z,65.20
2018-03-03T18:02:24.117Z,64.90
2018-03-03T18:04:52.349Z,64.10
2018-03-03T18:07:21.320Z,64.90
2018-03-03T18:09:49.552Z,64.90
2018-03-03T18:12:17.849Z,64.80
2018-03-03T18:14:46.064Z,65.80
2018-03-03T18:17:15.108Z,65.30
2018-03-03T18:19:43.348Z,65.30
2018-03-03T18:22:11.565Z,66.00
2018-03-03T18:24:39.798Z,66.10
2018-03-03T18:27:08.030Z,65.30
2018-03-03T18:29:36.247Z,64.70
2018-03-03T18:32:04.496Z,65.20
2018-03-03T18:34:33.460Z,65.80
2018-03-03T18:37:01.657Z,65.80
2018-03-03T18:39:29.899Z,65.90
2018-03-03T18:41:59.488Z,66.00
2018-03-03T18:44:27.721Z,66.20
2018-03-03T18:46:56.039Z,65.80
2018-03-03T18:49:24.340Z,65.50
2018-03-03T18:51:52.533Z,66.00
2018-03-03T18:54:20.779Z,66.70
2018-03-03T18:56:48.969Z,67.00
2018-03-03T18:59:17.232Z,67.20
2018-03-03T19:01:45.504Z,66.50
2018-03-03T19:04:13.707Z,66.60
2018-03-03T19:06:41.926Z,66.30
2018-03-03T19:09:10.167Z,66.60
2018-03-03T19:11:38.405Z,66.10
2018-03-03T19:14:06.615Z,66.00
2018-03-03T19:16:34.863Z,66.70
2018-03-03T19:19:03.817Z,66.90
2018-03-03T19:21:32.026Z,66.80
2018-03-03T19:24:00.347Z,67.70
2018-03-03T19:26:28.555Z,67.40
2018-03-03T19:28:57.514Z,68.10
2018-03-03T19:31:26.521Z,68.60
2018-03-03T19:33:55.615Z,67.90
2018-03-03T19:36:25.270Z,67.60
2018-03-03T19:38:53.481Z,67.60
2018-03-03T19:41:21.701Z,66.80
2018-03-03T19:43:49.917Z,67.20
2018-03-03T19:46:18.201Z,66.50
2018-03-03T19:48:46.444Z,66.50
2018-03-03T19:51:14.724Z,66.80
2018-03-03T19:53:44.154Z,67.30
2018-03-03T19:56:12.389Z,65.60
2018-03-03T19:58:40.568Z,65.50
2018-03-03T20:01:08.818Z,64.50
2018-03-03T20:03:37.032Z,65.80
2018-03-03T20:06:05.247Z,65.80
2018-03-03T20:08:33.476Z,64.70
2018-03-03T20:11:01.717Z,63.20
2018-03-03T20:13:30.674Z,63.10
2018-03-03T20:15:58.955Z,63.10
2018-03-03T20:18:27.140Z,61.30
2018-03-03T20:20:55.342Z,61.80
2018-03-03T20:23:23.629Z,61.30
2018-03-03T20:25:52.619Z,60.20
2018-03-03T20:28:20.909Z,60.20
2018-03-03T20:30:49.164Z,60.80
2018-03-03T20:33:17.514Z,59.90
2018-03-03T20:35:46.617Z,59.70
2018-03-03T20:38:15.654Z,59.90
2018-03-03T20:40:43.881Z,59.70
2018-03-03T20:43:12.895Z,59.10
2018-03-03T20:45:41.120Z,59.00
2018-03-03T20:48:09.399Z,59.00
2018-03-03T20:50:37.581Z,58.70
2018-03-03T20:53:07.148Z,58.90
2018-03-03T20:55:35.392Z,58.50
2018-03-03T20:58:04.384Z,58.40
2018-03-03T21:00:33.425Z,58.20
2018-03-03T21:03:01.661Z,58.10
2018-03-03T21:05:30.013Z,58.30
2018-03-03T21:07:58.365Z,58.50
2018-03-03T21:10:26.691Z,58.40
2018-03-03T21:12:55.685Z,58.10
2018-03-03T21:15:24.798Z,57.50
2018-03-03T21:17:53.081Z,57.50
2018-03-03T21:20:21.290Z,57.50
2018-03-03T21:22:49.590Z,57.30
2018-03-03T21:25:17.840Z,57.30
2018-03-03T21:27:46.048Z,57.10
2018-03-03T21:30:15.049Z,57.60
2018-03-03T21:32:44.041Z,57.00
2018-03-03T21:35:13.041Z,56.80
2018-03-03T21:37:42.223Z,57.50
2018-03-03T21:40:11.420Z,57.20
2018-03-03T21:42:39.678Z,57.10
2018-03-03T21:45:08.031Z,57.10
2018-03-03T21:47:36.277Z,56.60
2018-03-03T21:50:04.507Z,56.50
2018-03-03T21:52:32.732Z,56.70
2018-03-03T21:55:00.954Z,57.10
2018-03-03T21:57:29.165Z,57.20
2018-03-03T21:59:58.193Z,57.70
2018-03-03T22:02:26.415Z,57.70
2018-03-03T22:04:54.646Z,58.00
2018-03-03T22:07:22.853Z,58.30
2018-03-03T22:09:51.142Z,58.40
2018-03-03T22:12:19.340Z,58.30
2018-03-03T22:14:47.608Z,58.20
2018-03-03T22:17:16.585Z,57.20
2018-03-03T22:19:44.912Z,57.30
2018-03-03T22:22:13.197Z,57.30
2018-03-03T22:24:41.410Z,56.70
2018-03-03T22:27:09.635Z,56.40
2018-03-03T22:29:37.976Z,56.40
2018-03-03T22:32:07.050Z,57.60
2018-03-03T22:34:35.330Z,57.60
2018-03-03T22:37:03.586Z,57.00
2018-03-03T22:39:31.840Z,57.00
2018-03-03T22:42:00.058Z,57.00
2018-03-03T22:44:30.713Z,57.20
2018-03-03T22:46:59.773Z,57.30
2018-03-03T22:49:28.078Z,57.30
2018-03-03T22:51:56.449Z,57.00
2018-03-03T22:54:24.925Z,56.50
2018-03-03T22:56:53.217Z,57.00
2018-03-03T22:59:22.216Z,57.00
2018-03-03T23:01:51.187Z,57.10
2018-03-03T23:04:19.412Z,57.10
2018-03-03T23:06:47.788Z,57.20
2018-03-03T23:09:16.020Z,57.50
2018-03-03T23:11:44.207Z,57.50
2018-03-03T23:14:12.913Z,57.20
2018-03-03T23:16:41.426Z,57.50
2018-03-03T23:19:09.645Z,57.30
2018-03-03T23:21:38.797Z,56.60
2018-03-03T23:24:07.092Z,56.30
2018-03-03T23:26:35.332Z,56.40
2018-03-03T23:29:05.317Z,56.40
2018-03-03T23:31:34.284Z,56.50
2018-03-03T23:34:02.526Z,56.50
2018-03-03T23:36:30.808Z,56.60
2018-03-03T23:38:59.009Z,57.10
2018-03-03T23:41:27.268Z,56.90
2018-03-03T23:43:55.527Z,56.20
2018-03-03T23:46:23.823Z,56.30
2018-03-03T23:48:52.191Z,56.40
2018-03-03T23:51:20.436Z,56.00
2018-03-03T23:53:48.698Z,56.00
2018-03-03T23:56:17.664Z,56.50
2018-03-03T23:58:45.910Z,56.50
